createdAt,value
2018-05-14T00:00:32.959Z,12.11
2018-05-14T00:01:33.529Z,12.10
2018-05-14T00:02:34.089Z,12.13
2018-05-14T00:03:34.626Z,12.01
2018-05-14T00:04:35.175Z,12.13
2018-05-14T00:05:35.722Z,12.14
2018-05-14T00:06:36.262Z,12.09
2018-05-14T00:07:36.809Z,12.09
2018-05-14T00:08:37.355Z,12.14
2018-05-14T00:09:37.904Z,12.09
2018-05-14T00:10:38.455Z,12.09
2018-05-14T00:11:39.004Z,12.10
2018-05-14T00:12:39.548Z,12.07
2018-05-14T00:13:40.098Z,12.21
2018-05-14T00:14:40.645Z,12.10
2018-05-14T00:15:41.194Z,12.07
2018-05-14T00:16:41.741Z,12.11
2018-05-14T00:17:42.288Z,12.21
2018-05-14T00:18:42.833Z,12.14
2018-05-14T00:19:43.378Z,12.11
2018-05-14T00:20:43.920Z,12.21
2018-05-14T00:21:44.470Z,12.13
2018-05-14T00:22:45.015Z,12.22
2018-05-14T00:23:45.562Z,12.29
2018-05-14T00:24:46.108Z,12.25
2018-05-14T00:25:46.660Z,12.16
2018-05-14T00:26:47.204Z,12.21
2018-05-14T00:27:47.750Z,12.21
2018-05-14T00:28:48.299Z,12.16
2018-05-14T00:29:48.845Z,12.11
2018-05-14T00:30:49.402Z,12.10
2018-05-14T00:31:49.945Z,12.22
2018-05-14T00:32:50.490Z,12.19
2018-05-14T00:33:51.041Z,12.24
2018-05-14T00:34:51.589Z,12.25
2018-05-14T00:35:52.130Z,12.14
2018-05-14T00:36:52.684Z,12.22
2018-05-14T00:37:53.228Z,12.19
2018-05-14T00:38:53.771Z,12.16
2018-05-14T00:39:54.311Z,12.22
2018-05-14T00:40:54.863Z,12.22
2018-05-14T00:41:55.411Z,12.18
2018-05-14T00:42:55.959Z,12.18
2018-05-14T00:43:56.506Z,12.22
2018-05-14T00:44:57.052Z,12.13
2018-05-14T00:45:57.604Z,12.19
2018-05-14T00:46:58.146Z,12.18
2018-05-14T00:47:58.686Z,12.13
2018-05-14T00:48:59.232Z,12.13
2018-05-14T00:49:59.778Z,12.09
2018-05-14T00:51:00.329Z,12.09
2018-05-14T00:52:00.877Z,12.09
2018-05-14T00:53:01.429Z,12.16
2018-05-14T00:54:01.974Z,12.11
2018-05-14T00:55:02.518Z,12.18
2018-05-14T00:56:03.066Z,12.22
2018-05-14T00:57:03.611Z,12.16
2018-05-14T00:58:04.155Z,12.18
2018-05-14T00:59:04.697Z,12.18
2018-05-14T01:00:05.243Z,12.21
2018-05-14T01:01:05.794Z,12.14
2018-05-14T01:02:06.338Z,12.16
2018-05-14T01:03:06.886Z,12.25
2018-05-14T01:04:07.433Z,12.19
2018-05-14T01:05:07.988Z,12.24
2018-05-14T01:06:08.534Z,12.22
2018-05-14T01:07:09.083Z,12.14
2018-05-14T01:08:09.631Z,12.21
2018-05-14T01:09:10.179Z,12.22
2018-05-14T01:10:10.722Z,12.19
2018-05-14T01:11:11.269Z,12.28
2018-05-14T01:12:11.819Z,12.21
2018-05-14T01:13:12.367Z,12.24
2018-05-14T01:14:12.916Z,12.27
2018-05-14T01:15:13.460Z,12.31
2018-05-14T01:16:14.003Z,12.21
2018-05-14T01:17:14.551Z,12.22
2018-05-14T01:18:15.097Z,12.11
2018-05-14T01:19:15.644Z,12.09
2018-05-14T01:20:16.185Z,12.21
2018-05-14T01:21:16.731Z,12.16
2018-05-14T01:22:17.280Z,12.14
2018-05-14T01:23:17.826Z,12.10
2018-05-14T01:24:18.369Z,12.10
2018-05-14T01:25:18.918Z,12.09
2018-05-14T01:26:19.466Z,12.11
2018-05-14T01:27:20.014Z,12.11
2018-05-14T01:28:20.567Z,12.16
2018-05-14T01:29:21.113Z,12.13
2018-05-14T01:30:21.660Z,12.16
2018-05-14T01:31:22.205Z,12.11
2018-05-14T01:32:22.752Z,12.11
2018-05-14T01:33:23.295Z,12.14
2018-05-14T01:34:23.843Z,12.11
2018-05-14T01:35:24.389Z,12.11
2018-05-14T01:36:24.939Z,12.11
2018-05-14T01:37:25.485Z,12.09
2018-05-14T01:38:26.029Z,12.13
2018-05-14T01:39:26.573Z,12.11
2018-05-14T01:40:27.119Z,12.11
2018-05-14T01:41:27.660Z,12.07
2018-05-14T01:42:28.205Z,12.16
2018-05-14T01:43:28.754Z,12.06
2018-05-14T01:44:29.296Z,12.13
2018-05-14T01:45:29.838Z,12.09
2018-05-14T01:46:30.389Z,12.01
2018-05-14T01:47:30.931Z,12.04
2018-05-14T01:48:31.473Z,12.10
2018-05-14T01:49:32.024Z,12.04
2018-05-14T01:50:32.567Z,11.95
2018-05-14T01:51:33.110Z,11.98
2018-05-14T01:52:33.658Z,12.04
2018-05-14T01:53:34.207Z,11.95
2018-05-14T01:54:34.750Z,12.04
2018-05-14T01:55:35.296Z,12.01
2018-05-14T01:56:35.844Z,12.09
2018-05-14T01:57:36.392Z,12.06
2018-05-14T01:58:36.942Z,12.01
2018-05-14T01:59:37.487Z,12.06
2018-05-14T02:00:38.037Z,12.06
2018-05-14T02:01:38.585Z,12.01
2018-05-14T02:02:39.129Z,12.03
2018-05-14T02:03:39.674Z,11.95
2018-05-14T02:04:40.222Z,12.00
2018-05-14T02:05:40.767Z,12.07
2018-05-14T02:06:41.308Z,11.98
2018-05-14T02:07:41.861Z,11.96
2018-05-14T02:08:42.407Z,12.00
2018-05-14T02:09:42.966Z,12.00
2018-05-14T02:10:43.509Z,11.98
2018-05-14T02:11:44.055Z,11.98
2018-05-14T02:12:44.607Z,11.96
2018-05-14T02:13:45.155Z,12.03
2018-05-14T02:14:45.702Z,12.00
2018-05-14T02:15:46.249Z,11.96
2018-05-14T02:16:46.793Z,11.90
2018-05-14T02:17:47.354Z,12.04
2018-05-14T02:18:47.889Z,11.95
2018-05-14T02:19:48.441Z,11.93
2018-05-14T02:20:48.982Z,11.93
2018-05-14T02:21:49.532Z,11.91
2018-05-14T02:22:50.081Z,11.95
2018-05-14T02:23:50.630Z,11.93
2018-05-14T02:24:51.180Z,11.96
2018-05-14T02:25:51.726Z,11.91
2018-05-14T02:26:52.277Z,11.90
2018-05-14T02:27:52.822Z,11.93
2018-05-14T02:28:53.365Z,11.88
2018-05-14T02:29:53.913Z,11.98
2018-05-14T02:30:54.459Z,11.91
2018-05-14T02:31:54.999Z,11.87
2018-05-14T02:32:55.544Z,11.90
2018-05-14T02:33:56.089Z,11.91
2018-05-14T02:34:56.637Z,11.96
2018-05-14T02:35:57.184Z,11.88
2018-05-14T02:36:57.733Z,12.00
2018-05-14T02:37:58.277Z,11.87
2018-05-14T02:38:58.825Z,11.91
2018-05-14T02:39:59.377Z,11.91
2018-05-14T02:40:59.922Z,12.00
2018-05-14T02:42:00.474Z,11.90
2018-05-14T02:43:01.022Z,11.91
2018-05-14T02:44:01.568Z,11.93
2018-05-14T02:45:02.117Z,11.88
2018-05-14T02:46:02.666Z,11.93
2018-05-14T02:47:03.211Z,12.00
2018-05-14T02:48:03.754Z,11.96
2018-05-14T02:49:04.302Z,11.93
2018-05-14T02:50:04.845Z,11.98
2018-05-14T02:51:05.394Z,12.01
2018-05-14T02:52:05.942Z,12.03
2018-05-14T02:53:06.491Z,12.01
2018-05-14T02:54:07.034Z,12.04
2018-05-14T02:55:07.585Z,12.03
2018-05-14T02:56:08.133Z,11.93
2018-05-14T02:57:08.680Z,11.93
2018-05-14T02:58:09.279Z,12.00
2018-05-14T02:59:09.779Z,12.01
2018-05-14T03:00:10.328Z,12.00
2018-05-14T03:01:10.878Z,11.96
2018-05-14T03:02:11.428Z,11.95
2018-05-14T03:03:11.975Z,11.96
2018-05-14T03:04:12.519Z,11.95
2018-05-14T03:05:13.067Z,11.95
2018-05-14T03:06:13.612Z,11.95
2018-05-14T03:07:14.159Z,11.88
2018-05-14T03:08:14.705Z,11.88
2018-05-14T03:09:15.249Z,11.91
2018-05-14T03:10:15.799Z,11.88
2018-05-14T03:11:16.347Z,11.91
2018-05-14T03:12:16.892Z,11.84
2018-05-14T03:13:17.442Z,11.88
2018-05-14T03:14:17.991Z,11.88
2018-05-14T03:15:18.535Z,11.91
2018-05-14T03:16:19.085Z,11.88
2018-05-14T03:17:19.625Z,11.98
2018-05-14T03:18:20.171Z,11.91
2018-05-14T03:19:20.711Z,11.85
2018-05-14T03:20:21.259Z,11.87
2018-05-14T03:21:21.805Z,11.88
2018-05-14T03:22:22.354Z,11.87
2018-05-14T03:23:22.904Z,11.90
2018-05-14T03:24:23.449Z,11.93
2018-05-14T03:25:23.997Z,11.91
2018-05-14T03:26:24.547Z,11.90
2018-05-14T03:27:25.094Z,11.91
2018-05-14T03:28:25.647Z,11.88
2018-05-14T03:29:26.191Z,11.90
2018-05-14T03:30:26.743Z,12.04
2018-05-14T03:31:27.293Z,12.01
2018-05-14T03:32:27.832Z,12.00
2018-05-14T03:33:28.375Z,12.01
2018-05-14T03:34:28.924Z,12.01
2018-05-14T03:35:29.468Z,11.95
2018-05-14T03:36:30.020Z,11.98
2018-05-14T03:37:30.572Z,12.00
2018-05-14T03:38:31.121Z,12.00
2018-05-14T03:39:31.662Z,12.00
2018-05-14T03:40:32.213Z,12.03
2018-05-14T03:41:32.761Z,12.04
2018-05-14T03:42:33.311Z,11.91
2018-05-14T03:43:33.860Z,12.00
2018-05-14T03:44:34.407Z,11.90
2018-05-14T03:45:34.950Z,12.03
2018-05-14T03:46:35.499Z,11.93
2018-05-14T03:47:36.059Z,11.88
2018-05-14T03:48:36.599Z,11.90
2018-05-14T03:49:37.153Z,11.91
2018-05-14T03:50:37.699Z,11.88
2018-05-14T03:51:38.245Z,11.96
2018-05-14T03:52:38.797Z,11.90
2018-05-14T03:53:39.350Z,11.93
2018-05-14T03:54:39.896Z,11.93
2018-05-14T03:55:40.446Z,11.96
2018-05-14T03:56:40.999Z,12.03
2018-05-14T03:57:41.550Z,12.01
2018-05-14T03:58:42.106Z,11.95
2018-05-14T03:59:42.660Z,12.00
2018-05-14T04:00:43.211Z,12.00
2018-05-14T04:01:43.765Z,11.90
2018-05-14T04:02:44.318Z,12.04
2018-05-14T04:03:44.865Z,11.95
2018-05-14T04:04:45.442Z,12.00
2018-05-14T04:05:45.971Z,12.01
2018-05-14T04:06:46.520Z,11.91
2018-05-14T04:07:47.066Z,11.93
2018-05-14T04:08:47.618Z,11.93
2018-05-14T04:09:48.168Z,12.04
2018-05-14T04:10:48.713Z,11.95
2018-05-14T04:11:49.265Z,11.91
2018-05-14T04:12:49.817Z,11.91
2018-05-14T04:13:50.358Z,11.93
2018-05-14T04:14:50.910Z,11.85
2018-05-14T04:15:51.455Z,11.93
2018-05-14T04:16:52.002Z,11.85
2018-05-14T04:17:52.561Z,11.93
2018-05-14T04:18:53.111Z,11.95
2018-05-14T04:19:53.661Z,11.90
2018-05-14T04:20:54.215Z,11.96
2018-05-14T04:21:54.765Z,11.91
2018-05-14T04:22:55.309Z,11.96
2018-05-14T04:23:55.862Z,12.04
2018-05-14T04:24:56.420Z,11.95
2018-05-14T04:25:56.967Z,12.01
2018-05-14T04:26:57.514Z,12.07
2018-05-14T04:27:58.070Z,11.91
2018-05-14T04:28:58.621Z,11.96
2018-05-14T04:29:59.174Z,11.95
2018-05-14T04:30:59.718Z,12.01
2018-05-14T04:32:00.268Z,12.01
2018-05-14T04:33:00.819Z,11.95
2018-05-14T04:34:01.367Z,12.04
2018-05-14T04:35:01.922Z,12.10
2018-05-14T04:36:02.469Z,12.10
2018-05-14T04:37:03.018Z,12.09
2018-05-14T04:38:03.566Z,12.07
2018-05-14T04:39:04.124Z,12.09
2018-05-14T04:40:04.719Z,12.16
2018-05-14T04:41:05.225Z,12.14
2018-05-14T04:42:05.774Z,12.13
2018-05-14T04:43:06.324Z,12.07
2018-05-14T04:44:06.876Z,12.10
2018-05-14T04:45:07.427Z,12.13
2018-05-14T04:46:07.975Z,12.11
2018-05-14T04:47:08.528Z,12.09
2018-05-14T04:48:09.078Z,12.14
2018-05-14T04:49:09.628Z,12.07
2018-05-14T04:50:10.184Z,12.16
2018-05-14T04:51:10.735Z,12.09
2018-05-14T04:52:11.285Z,12.11
2018-05-14T04:53:11.838Z,12.13
2018-05-14T04:54:12.391Z,12.22
2018-05-14T04:55:12.941Z,12.19
2018-05-14T04:56:13.493Z,12.25
2018-05-14T04:57:14.047Z,12.18
2018-05-14T04:58:14.603Z,12.21
2018-05-14T04:59:15.189Z,12.27
2018-05-14T05:00:15.759Z,12.22
2018-05-14T05:01:16.313Z,12.24
2018-05-14T05:02:16.866Z,12.27
2018-05-14T05:03:17.418Z,12.31
2018-05-14T05:04:17.986Z,12.28
2018-05-14T05:05:18.532Z,12.31
2018-05-14T05:06:19.084Z,12.28
2018-05-14T05:07:19.638Z,12.29
2018-05-14T05:08:20.185Z,12.32
2018-05-14T05:09:20.735Z,12.28
2018-05-14T05:10:21.310Z,12.27
2018-05-14T05:11:21.872Z,12.28
2018-05-14T05:12:22.400Z,12.28
2018-05-14T05:13:22.954Z,12.28
2018-05-14T05:14:23.503Z,12.32
2018-05-14T05:15:24.064Z,12.29
2018-05-14T05:16:24.618Z,12.34
2018-05-14T05:17:25.165Z,12.35
2018-05-14T05:18:25.717Z,12.29
2018-05-14T05:19:26.273Z,12.34
2018-05-14T05:20:26.824Z,12.39
2018-05-14T05:21:27.379Z,12.40
2018-05-14T05:22:27.931Z,12.29
2018-05-14T05:23:28.491Z,12.34
2018-05-14T05:24:29.043Z,12.37
2018-05-14T05:25:29.597Z,12.42
2018-05-14T05:26:30.153Z,12.40
2018-05-14T05:27:30.705Z,12.42
2018-05-14T05:28:31.328Z,12.44
2018-05-14T05:29:31.798Z,12.42
2018-05-14T05:30:32.355Z,12.47
2018-05-14T05:31:32.909Z,12.47
2018-05-14T05:32:33.456Z,12.49
2018-05-14T05:33:34.005Z,12.47
2018-05-14T05:34:34.564Z,12.44
2018-05-14T05:35:35.112Z,12.39
2018-05-14T05:36:35.661Z,12.43
2018-05-14T05:37:36.246Z,12.43
2018-05-14T05:38:36.814Z,12.44
2018-05-14T05:39:37.357Z,12.49
2018-05-14T05:40:37.905Z,12.53
2018-05-14T05:41:38.502Z,12.55
2018-05-14T05:42:39.062Z,12.58
2018-05-14T05:43:39.616Z,12.57
2018-05-14T05:44:40.177Z,12.60
2018-05-14T05:45:40.723Z,12.47
2018-05-14T05:46:41.282Z,12.50
2018-05-14T05:47:41.843Z,12.57
2018-05-14T05:48:42.401Z,12.47
2018-05-14T05:49:42.956Z,12.60
2018-05-14T05:50:43.509Z,12.64
2018-05-14T05:51:44.060Z,12.61
2018-05-14T05:52:44.612Z,12.61
2018-05-14T05:53:45.167Z,12.60
2018-05-14T05:54:45.718Z,12.61
2018-05-14T05:55:46.275Z,12.50
2018-05-14T05:56:46.829Z,12.58
2018-05-14T05:57:47.381Z,12.57
2018-05-14T05:58:47.932Z,12.60
2018-05-14T05:59:48.487Z,12.62
2018-05-14T06:00:49.040Z,12.60
2018-05-14T06:01:49.590Z,12.64
2018-05-14T06:02:50.148Z,12.60
2018-05-14T06:03:50.701Z,12.62
2018-05-14T06:04:51.251Z,12.62
2018-05-14T06:05:51.878Z,12.60
2018-05-14T06:06:52.355Z,12.75
2018-05-14T06:07:52.915Z,12.65
2018-05-14T06:08:53.458Z,12.68
2018-05-14T06:09:54.010Z,12.68
2018-05-14T06:10:54.558Z,12.71
2018-05-14T06:11:55.111Z,12.77
2018-05-14T06:12:55.666Z,12.79
2018-05-14T06:13:56.217Z,12.76
2018-05-14T06:14:56.769Z,12.79
2018-05-14T06:15:57.317Z,12.75
2018-05-14T06:16:57.864Z,12.83
2018-05-14T06:17:58.418Z,12.85
2018-05-14T06:18:58.967Z,12.83
2018-05-14T06:19:59.528Z,12.86
2018-05-14T06:21:00.077Z,12.86
2018-05-14T06:22:00.625Z,12.90
2018-05-14T06:23:01.175Z,12.97
2018-05-14T06:24:01.777Z,12.97
2018-05-14T06:25:02.331Z,13.00
2018-05-14T06:26:02.890Z,12.97
2018-05-14T06:27:03.446Z,12.94
2018-05-14T06:28:03.998Z,13.00
2018-05-14T06:29:04.555Z,13.02
2018-05-14T06:30:05.112Z,13.01
2018-05-14T06:31:05.667Z,12.97
2018-05-14T06:32:06.218Z,13.08
2018-05-14T06:33:06.772Z,13.05
2018-05-14T06:34:07.324Z,13.07
2018-05-14T06:35:07.876Z,13.04
2018-05-14T06:36:08.434Z,13.05
2018-05-14T06:37:08.983Z,13.05
2018-05-14T06:38:09.538Z,13.04
2018-05-14T06:39:10.092Z,13.05
2018-05-14T06:40:10.645Z,13.15
2018-05-14T06:41:11.200Z,13.18
2018-05-14T06:42:11.751Z,13.15
2018-05-14T06:43:12.306Z,13.10
2018-05-14T06:44:12.856Z,13.20
2018-05-14T06:45:13.410Z,13.25
2018-05-14T06:46:13.965Z,13.08
2018-05-14T06:47:14.521Z,13.20
2018-05-14T06:48:15.081Z,13.27
2018-05-14T06:49:15.645Z,13.33
2018-05-14T06:50:16.187Z,13.31
2018-05-14T06:51:16.749Z,13.36
2018-05-14T06:52:17.292Z,13.31
2018-05-14T06:53:17.842Z,13.35
2018-05-14T06:54:18.405Z,13.35
2018-05-14T06:55:18.954Z,13.38
2018-05-14T06:56:19.509Z,13.42
2018-05-14T06:57:20.060Z,13.39
2018-05-14T06:58:20.613Z,13.45
2018-05-14T06:59:21.161Z,13.39
2018-05-14T07:00:21.717Z,13.44
2018-05-14T07:01:22.279Z,13.50
2018-05-14T07:02:22.837Z,13.46
2018-05-14T07:03:23.391Z,13.42
2018-05-14T07:04:23.991Z,13.46
2018-05-14T07:05:24.550Z,13.49
2018-05-14T07:06:25.139Z,13.57
2018-05-14T07:07:25.715Z,13.56
2018-05-14T07:08:26.266Z,13.60
2018-05-14T07:09:26.821Z,13.54
2018-05-14T07:10:27.373Z,13.64
2018-05-14T07:11:28.004Z,13.61
2018-05-14T07:12:28.476Z,13.61
2018-05-14T07:13:29.029Z,13.66
2018-05-14T07:14:29.584Z,13.63
2018-05-14T07:15:30.140Z,13.61
2018-05-14T07:16:30.695Z,13.61
2018-05-14T07:17:31.259Z,13.60
2018-05-14T07:18:31.812Z,13.68
2018-05-14T07:19:32.370Z,13.64
2018-05-14T07:20:32.930Z,13.69
2018-05-14T07:21:33.483Z,13.72
2018-05-14T07:22:34.041Z,13.74
2018-05-14T07:23:34.596Z,13.60
2018-05-14T07:24:35.146Z,13.74
2018-05-14T07:25:35.700Z,13.72
2018-05-14T07:26:36.251Z,13.69
2018-05-14T07:27:36.809Z,13.78
2018-05-14T07:28:37.363Z,13.92
2018-05-14T07:29:37.922Z,13.87
2018-05-14T07:30:38.473Z,13.99
2018-05-14T07:31:39.023Z,13.93
2018-05-14T07:32:39.588Z,13.93
2018-05-14T07:33:40.308Z,13.92
2018-05-14T07:34:40.683Z,14.08
2018-05-14T07:35:41.236Z,14.11
2018-05-14T07:36:41.795Z,14.08
2018-05-14T07:37:42.346Z,14.11
2018-05-14T07:38:42.904Z,14.12
2018-05-14T07:39:43.458Z,14.19
2018-05-14T07:40:44.015Z,14.18
2018-05-14T07:41:44.570Z,14.15
2018-05-14T07:42:45.121Z,14.17
2018-05-14T07:43:45.683Z,14.12
2018-05-14T07:44:46.236Z,14.23
2018-05-14T07:45:46.784Z,14.19
2018-05-14T07:46:47.340Z,14.19
2018-05-14T07:47:47.899Z,14.26
2018-05-14T07:48:48.450Z,14.26
2018-05-14T07:49:49.006Z,14.21
2018-05-14T07:50:49.564Z,14.18
2018-05-14T07:51:50.121Z,14.26
2018-05-14T07:52:50.673Z,14.23
2018-05-14T07:53:51.228Z,14.25
2018-05-14T07:54:51.784Z,14.35
2018-05-14T07:55:52.337Z,14.27
2018-05-14T07:56:52.891Z,14.19
2018-05-14T07:57:53.453Z,14.29
2018-05-14T07:58:54.003Z,14.27
2018-05-14T07:59:54.561Z,14.18
2018-05-14T08:00:55.117Z,14.33
2018-05-14T08:01:55.674Z,14.26
2018-05-14T08:02:56.229Z,14.29
2018-05-14T08:03:56.781Z,14.36
2018-05-14T08:04:57.338Z,14.40
2018-05-14T08:05:57.940Z,14.39
2018-05-14T08:06:58.472Z,14.43
2018-05-14T08:07:59.029Z,14.45
2018-05-14T08:08:59.597Z,14.45
2018-05-14T08:10:00.184Z,14.45
2018-05-14T08:11:00.736Z,14.51
2018-05-14T08:12:01.298Z,14.51
2018-05-14T08:13:01.905Z,14.50
2018-05-14T08:14:02.465Z,14.57
2018-05-14T08:15:03.028Z,14.78
2018-05-14T08:16:03.582Z,14.78
2018-05-14T08:17:04.148Z,14.85
2018-05-14T08:18:04.820Z,14.86
2018-05-14T08:19:05.386Z,14.94
2018-05-14T08:20:05.940Z,14.99
2018-05-14T08:21:06.494Z,14.99
2018-05-14T08:22:07.049Z,15.06
2018-05-14T08:23:07.621Z,15.07
2018-05-14T08:24:08.181Z,15.07
2018-05-14T08:25:08.743Z,15.17
2018-05-14T08:26:09.430Z,15.06
2018-05-14T08:27:09.992Z,15.14
2018-05-14T08:28:10.553Z,15.24
2018-05-14T08:29:11.121Z,15.18
2018-05-14T08:30:11.693Z,15.14
2018-05-14T08:31:12.262Z,15.37
2018-05-14T08:32:12.824Z,15.37
2018-05-14T08:33:13.381Z,15.46
2018-05-14T08:34:13.935Z,15.47
2018-05-14T08:35:14.495Z,15.54
2018-05-14T08:36:15.049Z,15.59
2018-05-14T08:37:15.612Z,15.64
2018-05-14T08:38:16.178Z,15.65
2018-05-14T08:39:16.738Z,15.59
2018-05-14T08:40:17.289Z,15.65
2018-05-14T08:41:17.854Z,15.59
2018-05-14T08:42:18.505Z,15.65
2018-05-14T08:43:18.981Z,15.75
2018-05-14T08:44:19.526Z,15.69
2018-05-14T08:45:20.137Z,15.65
2018-05-14T08:46:20.703Z,15.67
2018-05-14T08:47:21.268Z,15.76
2018-05-14T08:48:21.828Z,15.77
2018-05-14T08:49:22.391Z,15.76
2018-05-14T08:50:22.954Z,15.82
2018-05-14T08:51:23.503Z,15.79
2018-05-14T08:52:24.067Z,15.82
2018-05-14T08:53:24.620Z,15.92
2018-05-14T08:54:25.307Z,15.91
2018-05-14T08:55:25.737Z,15.94
2018-05-14T08:56:26.293Z,16.13
2018-05-14T08:57:26.855Z,16.10
2018-05-14T08:58:27.420Z,16.29
2018-05-14T08:59:27.981Z,16.36
2018-05-14T09:00:28.540Z,16.42
2018-05-14T09:01:29.109Z,16.49
2018-05-14T09:02:29.672Z,16.53
2018-05-14T09:03:30.236Z,16.61
2018-05-14T09:04:30.816Z,16.73
2018-05-14T09:05:31.495Z,16.64
2018-05-14T09:06:31.917Z,16.75
2018-05-14T09:07:32.539Z,16.73
2018-05-14T09:08:33.089Z,16.86
2018-05-14T09:09:33.648Z,17.00
2018-05-14T09:10:34.203Z,16.91
2018-05-14T09:11:34.766Z,17.04
2018-05-14T09:12:35.332Z,17.14
2018-05-14T09:13:35.890Z,17.19
2018-05-14T09:14:36.459Z,17.24
2018-05-14T09:15:37.013Z,17.44
2018-05-14T09:16:37.577Z,17.36
2018-05-14T09:17:38.143Z,17.71
2018-05-14T09:18:38.696Z,17.83
2018-05-14T09:19:39.456Z,17.77
2018-05-14T09:20:39.811Z,17.80
2018-05-14T09:21:40.371Z,17.83
2018-05-14T09:22:40.935Z,17.87
2018-05-14T09:23:41.490Z,18.05
2018-05-14T09:24:42.056Z,18.12
2018-05-14T09:25:42.616Z,18.08
2018-05-14T09:26:43.174Z,17.98
2018-05-14T09:27:43.734Z,17.93
2018-05-14T09:28:44.295Z,18.16
2018-05-14T09:29:44.856Z,18.20
2018-05-14T09:30:45.423Z,18.35
2018-05-14T09:31:46.009Z,18.34
2018-05-14T09:32:46.560Z,18.40
2018-05-14T09:33:47.132Z,18.48
2018-05-14T09:34:47.695Z,18.51
2018-05-14T09:35:48.256Z,18.48
2018-05-14T09:36:48.824Z,18.35
2018-05-14T09:37:49.385Z,18.35
2018-05-14T09:38:49.941Z,18.41
2018-05-14T09:39:50.499Z,18.55
2018-05-14T09:40:51.289Z,18.62
2018-05-14T09:41:51.861Z,18.66
2018-05-14T09:42:52.420Z,18.78
2018-05-14T09:43:52.989Z,18.84
2018-05-14T09:44:53.545Z,18.81
2018-05-14T09:45:54.102Z,18.92
2018-05-14T09:46:54.666Z,18.95
2018-05-14T09:47:55.230Z,18.84
2018-05-14T09:48:55.786Z,18.98
2018-05-14T09:49:56.341Z,18.92
2018-05-14T09:50:56.900Z,18.95
2018-05-14T09:51:57.466Z,18.80
2018-05-14T09:52:58.153Z,18.69
2018-05-14T09:53:58.714Z,18.77
2018-05-14T09:54:59.286Z,18.81
2018-05-14T09:55:59.855Z,18.84
2018-05-14T09:57:00.431Z,18.78
2018-05-14T09:58:01.009Z,18.77
2018-05-14T09:59:01.583Z,18.85
2018-05-14T10:00:02.149Z,18.92
2018-05-14T10:01:02.729Z,19.02
2018-05-14T10:02:03.309Z,19.09
2018-05-14T10:03:03.872Z,19.30
2018-05-14T10:04:04.450Z,19.30
2018-05-14T10:05:05.237Z,19.48
2018-05-14T10:06:05.794Z,19.44
2018-05-14T10:07:06.362Z,19.25
2018-05-14T10:08:06.934Z,19.27
2018-05-14T10:09:07.502Z,19.24
2018-05-14T10:10:08.071Z,19.22
2018-05-14T10:11:08.643Z,19.14
2018-05-14T10:12:09.212Z,19.12
2018-05-14T10:13:09.791Z,19.07
2018-05-14T10:14:10.369Z,19.11
2018-05-14T10:15:10.943Z,19.15
2018-05-14T10:16:11.525Z,19.24
2018-05-14T10:17:12.096Z,19.33
2018-05-14T10:18:12.677Z,19.34
2018-05-14T10:19:13.253Z,19.47
2018-05-14T10:20:13.807Z,19.62
2018-05-14T10:21:14.375Z,19.73
2018-05-14T10:22:14.953Z,19.80
2018-05-14T10:23:15.518Z,20.04
2018-05-14T10:24:16.093Z,19.95
2018-05-14T10:25:16.667Z,20.06
2018-05-14T10:26:17.234Z,19.95
2018-05-14T10:27:17.812Z,19.81
2018-05-14T10:28:18.518Z,19.98
2018-05-14T10:29:19.098Z,20.10
2018-05-14T10:30:19.676Z,20.21
2018-05-14T10:31:20.259Z,20.28
2018-05-14T10:32:20.837Z,20.25
2018-05-14T10:33:21.405Z,20.31
2018-05-14T10:34:22.871Z,20.42
2018-05-14T10:35:23.448Z,20.55
2018-05-14T10:36:24.251Z,20.80
2018-05-14T10:37:24.832Z,20.90
2018-05-14T10:38:25.410Z,20.82
2018-05-14T10:39:25.988Z,20.84
2018-05-14T10:40:26.560Z,20.70
2018-05-14T10:41:27.144Z,20.67
2018-05-14T10:42:27.725Z,20.63
2018-05-14T10:43:28.302Z,20.47
2018-05-14T10:44:28.876Z,20.17
2018-05-14T10:45:29.453Z,20.16
2018-05-14T10:46:30.233Z,20.11
2018-05-14T10:47:30.797Z,20.26
2018-05-14T10:48:31.359Z,20.24
2018-05-14T10:49:31.941Z,20.26
2018-05-14T10:50:32.510Z,20.32
2018-05-14T10:51:33.083Z,20.40
2018-05-14T10:52:33.660Z,20.35
2018-05-14T10:53:34.270Z,20.43
2018-05-14T10:54:34.817Z,20.31
2018-05-14T10:55:35.380Z,20.39
2018-05-14T10:56:35.946Z,20.59
2018-05-14T10:57:36.522Z,20.65
2018-05-14T10:58:37.100Z,20.69
2018-05-14T10:59:37.668Z,20.65
2018-05-14T11:00:38.297Z,20.62
2018-05-14T11:01:38.819Z,20.55
2018-05-14T11:02:39.393Z,20.60
2018-05-14T11:03:39.971Z,20.40
2018-05-14T11:04:40.551Z,20.52
2018-05-14T11:05:41.126Z,20.40
2018-05-14T11:06:41.700Z,20.39
2018-05-14T11:07:42.270Z,20.43
2018-05-14T11:08:42.842Z,20.51
2018-05-14T11:09:43.409Z,20.59
2018-05-14T11:10:43.982Z,20.60
2018-05-14T11:11:44.551Z,20.57
2018-05-14T11:12:45.135Z,20.54
2018-05-14T11:13:45.700Z,20.69
2018-05-14T11:14:46.273Z,20.65
2018-05-14T11:15:46.838Z,20.77
2018-05-14T11:16:47.405Z,20.84
2018-05-14T11:17:47.961Z,20.92
2018-05-14T11:18:48.598Z,20.98
2018-05-14T11:19:49.090Z,20.98
2018-05-14T11:20:49.656Z,20.98
2018-05-14T11:21:50.218Z,21.07
2018-05-14T11:22:50.783Z,21.06
2018-05-14T11:23:51.351Z,21.14
2018-05-14T11:24:51.922Z,21.28
2018-05-14T11:25:52.495Z,21.21
2018-05-14T11:26:53.071Z,21.20
2018-05-14T11:27:53.699Z,21.15
2018-05-14T11:28:54.204Z,21.18
2018-05-14T11:29:54.764Z,21.30
2018-05-14T11:30:55.335Z,21.42
2018-05-14T11:31:55.917Z,21.49
2018-05-14T11:32:56.495Z,21.51
2018-05-14T11:33:57.068Z,21.52
2018-05-14T11:34:57.636Z,21.51
2018-05-14T11:35:58.204Z,21.40
2018-05-14T11:36:58.775Z,21.60
2018-05-14T11:37:59.343Z,21.60
2018-05-14T11:38:59.907Z,21.77
2018-05-14T11:40:00.477Z,21.75
2018-05-14T11:41:01.044Z,21.47
2018-05-14T11:42:01.622Z,21.58
2018-05-14T11:43:02.182Z,21.73
2018-05-14T11:44:02.748Z,21.65
2018-05-14T11:45:03.306Z,21.65
2018-05-14T11:46:03.874Z,21.73
2018-05-14T11:47:04.441Z,21.92
2018-05-14T11:48:05.009Z,21.86
2018-05-14T11:49:05.582Z,21.95
2018-05-14T11:50:06.158Z,22.03
2018-05-14T11:51:06.735Z,22.42
2018-05-14T11:52:07.299Z,22.81
2018-05-14T11:53:07.862Z,23.25
2018-05-14T11:54:08.427Z,23.80
2018-05-14T11:55:09.000Z,23.91
2018-05-14T11:56:09.585Z,23.87
2018-05-14T11:57:10.158Z,23.86
2018-05-14T11:58:10.730Z,23.87
2018-05-14T11:59:11.299Z,24.14
2018-05-14T12:00:11.897Z,24.42
2018-05-14T12:01:12.438Z,24.38
2018-05-14T12:02:13.009Z,24.24
2018-05-14T12:03:13.601Z,24.08
2018-05-14T12:04:14.162Z,24.02
2018-05-14T12:05:14.741Z,24.09
2018-05-14T12:06:15.313Z,24.23
2018-05-14T12:07:15.888Z,24.27
2018-05-14T12:08:16.463Z,24.66
2018-05-14T12:09:17.035Z,24.64
2018-05-14T12:10:17.608Z,24.84
2018-05-14T12:11:18.176Z,25.01
2018-05-14T12:12:18.804Z,25.28
2018-05-14T12:13:19.339Z,25.68
2018-05-14T12:14:19.914Z,26.00
2018-05-14T12:15:20.485Z,26.02
2018-05-14T12:16:21.123Z,25.93
2018-05-14T12:17:21.635Z,26.02
2018-05-14T12:18:22.203Z,26.39
2018-05-14T12:19:22.784Z,26.56
2018-05-14T12:20:23.573Z,26.80
2018-05-14T12:21:24.138Z,26.85
2018-05-14T12:22:24.729Z,26.66
2018-05-14T12:23:25.297Z,26.65
2018-05-14T12:24:25.876Z,26.78
2018-05-14T12:25:26.444Z,26.96
2018-05-14T12:26:27.037Z,27.02
2018-05-14T12:27:27.611Z,27.25
2018-05-14T12:28:28.198Z,26.99
2018-05-14T12:29:28.776Z,27.03
2018-05-14T12:30:29.363Z,26.84
2018-05-14T12:31:29.941Z,26.88
2018-05-14T12:32:30.513Z,26.99
2018-05-14T12:33:31.080Z,27.05
2018-05-14T12:34:31.643Z,27.25
2018-05-14T12:35:32.216Z,27.66
2018-05-14T12:36:32.791Z,27.77
2018-05-14T12:37:33.671Z,27.67
2018-05-14T12:38:34.168Z,27.74
2018-05-14T12:39:34.743Z,27.80
2018-05-14T12:40:35.316Z,27.66
2018-05-14T12:41:35.899Z,27.76
2018-05-14T12:42:36.557Z,28.05
2018-05-14T12:43:37.336Z,28.23
2018-05-14T12:44:37.872Z,28.55
2018-05-14T12:45:38.502Z,28.82
2018-05-14T12:46:39.115Z,29.05
2018-05-14T12:47:39.660Z,28.91
2018-05-14T12:48:40.226Z,28.73
2018-05-14T12:49:40.800Z,28.45
2018-05-14T12:50:41.365Z,28.27
2018-05-14T12:51:41.933Z,28.35
2018-05-14T12:52:42.498Z,28.63
2018-05-14T12:53:43.069Z,28.66
2018-05-14T12:54:43.636Z,28.81
2018-05-14T12:55:44.208Z,29.08
2018-05-14T12:56:44.772Z,29.27
2018-05-14T12:57:45.345Z,29.60
2018-05-14T12:58:45.911Z,29.47
2018-05-14T12:59:46.480Z,29.48